Flughafen Wetterinformationen

LTBA 061250Z 02014KT 350V050 CAVOK 29/20 Q1011 NOSIG

VATSIM Feed

Card image cap

ATC Buchungen

Es wurde keine Position gebucht

Card image cap

Aktive Flugsicherung

Luftraum Name Rating Frequenz
LTFJ_GND Deniz Isiklar S1 121.750

Blog

Read our latest news and get to know us better.